createdAt,value
2022-08-14T00:00:25.710Z,1008.15
2022-08-14T00:01:25.755Z,1008.11
2022-08-14T00:02:27.125Z,1008.10
2022-08-14T00:03:29.249Z,1008.05
2022-08-14T00:04:35.762Z,1008.05
2022-08-14T00:05:25.703Z,1008.04
2022-08-14T00:06:29.124Z,1008.05
2022-08-14T00:07:25.718Z,1008.03
2022-08-14T00:08:44.363Z,1008.03
2022-08-14T00:09:25.721Z,1008.04
2022-08-14T00:10:51.976Z,1008.01
2022-08-14T00:11:25.729Z,1008.03
2022-08-14T00:12:33.437Z,1008.03
2022-08-14T00:13:25.719Z,1008.00
2022-08-14T00:14:25.720Z,1007.99
2022-08-14T00:15:25.724Z,1008.05
2022-08-14T00:16:41.646Z,1008.02
2022-08-14T00:17:25.727Z,1007.96
2022-08-14T00:18:30.497Z,1007.99
2022-08-14T00:19:25.740Z,1007.99
2022-08-14T00:20:30.823Z,1007.97
2022-08-14T00:21:28.247Z,1007.94
2022-08-14T00:22:56.408Z,1007.90
2022-08-14T00:23:25.743Z,1007.91
2022-08-14T00:24:29.114Z,1007.89
2022-08-14T00:25:25.736Z,1007.83
2022-08-14T00:26:25.742Z,1007.86
2022-08-14T00:27:25.748Z,1007.80
2022-08-14T00:28:25.746Z,1007.81
2022-08-14T00:29:27.113Z,1007.83
2022-08-14T00:30:25.755Z,1007.84
2022-08-14T00:31:34.858Z,1007.85
2022-08-14T00:32:55.694Z,1007.89
2022-08-14T00:33:50.801Z,1007.89
2022-08-14T00:34:36.121Z,1007.87
2022-08-14T00:36:34.296Z,1007.83
2022-08-14T00:36:35.937Z,1007.84
2022-08-14T00:37:25.777Z,1007.87
2022-08-14T00:38:25.778Z,1007.87
2022-08-14T00:39:25.911Z,1007.83
2022-08-14T00:40:33.163Z,1007.77
2022-08-14T00:41:25.779Z,1007.74
2022-08-14T00:42:56.029Z,1007.76
2022-08-14T00:43:25.775Z,1007.70
2022-08-14T00:44:27.663Z,1007.69
2022-08-14T00:45:25.778Z,1007.69
2022-08-14T00:46:33.388Z,1007.66
2022-08-14T00:47:26.880Z,1007.68
2022-08-14T00:48:34.084Z,1007.67
2022-08-14T00:49:25.791Z,1007.67
2022-08-14T00:50:25.909Z,1007.62
2022-08-14T00:51:37.614Z,1007.65
2022-08-14T00:52:25.796Z,1007.67
2022-08-14T00:53:25.790Z,1007.66
2022-08-14T00:54:25.802Z,1007.65
2022-08-14T00:55:25.798Z,1007.65
2022-08-14T00:56:25.804Z,1007.65
2022-08-14T00:57:25.801Z,1007.60
2022-08-14T00:58:27.839Z,1007.60
2022-08-14T00:59:25.810Z,1007.61
2022-08-14T01:00:37.486Z,1007.53
2022-08-14T01:01:25.899Z,1007.52
2022-08-14T01:02:28.173Z,1007.51
2022-08-14T01:03:25.817Z,1007.52
2022-08-14T01:04:51.738Z,1007.47
2022-08-14T01:05:25.812Z,1007.42
2022-08-14T01:06:25.821Z,1007.43
2022-08-14T01:07:27.303Z,1007.42
2022-08-14T01:08:51.196Z,1007.42
2022-08-14T01:09:25.826Z,1007.40
2022-08-14T01:10:25.825Z,1007.40
2022-08-14T01:11:25.824Z,1007.36
2022-08-14T01:12:27.124Z,1007.37
2022-08-14T01:13:25.826Z,1007.39
2022-08-14T01:14:28.367Z,1007.34
2022-08-14T01:15:31.821Z,1007.36
2022-08-14T01:16:27.958Z,1007.38
2022-08-14T01:17:25.832Z,1007.34
2022-08-14T01:18:25.857Z,1007.30
2022-08-14T01:19:25.834Z,1007.29
2022-08-14T01:20:27.171Z,1007.26
2022-08-14T01:21:25.844Z,1007.30
2022-08-14T01:22:26.931Z,1007.23
2022-08-14T01:23:25.841Z,1007.23
2022-08-14T01:24:30.827Z,1007.21
2022-08-14T01:25:25.851Z,1007.21
2022-08-14T01:26:35.000Z,1007.20
2022-08-14T01:27:25.851Z,1007.22
2022-08-14T01:28:46.786Z,1007.20
2022-08-14T01:29:58.157Z,1007.18
2022-08-14T01:30:25.871Z,1007.12
2022-08-14T01:31:25.863Z,1007.10
2022-08-14T01:32:25.863Z,1007.09
2022-08-14T01:33:25.871Z,1007.08
2022-08-14T01:35:20.849Z,1007.04
2022-08-14T01:36:04.842Z,1007.02
2022-08-14T01:36:25.870Z,1006.99
2022-08-14T01:37:26.043Z,1006.96
2022-08-14T01:38:25.877Z,1006.95
2022-08-14T01:39:25.925Z,1006.93
2022-08-14T01:40:33.234Z,1006.91
2022-08-14T01:41:29.760Z,1006.90
2022-08-14T01:42:31.934Z,1006.86
2022-08-14T01:43:26.494Z,1006.87
2022-08-14T01:44:32.217Z,1006.86
2022-08-14T01:45:25.896Z,1006.83
2022-08-14T01:46:25.890Z,1006.87
2022-08-14T01:47:25.884Z,1006.86
2022-08-14T01:48:25.889Z,1006.85
2022-08-14T01:49:25.895Z,1006.86
2022-08-14T01:50:26.552Z,1006.82
2022-08-14T01:51:25.919Z,1006.85
2022-08-14T01:52:33.710Z,1006.80
2022-08-14T01:53:25.898Z,1006.78
2022-08-14T01:54:25.892Z,1006.78
2022-08-14T01:55:25.895Z,1006.75
2022-08-14T01:56:25.898Z,1006.71
2022-08-14T01:57:25.905Z,1006.72
2022-08-14T01:58:28.729Z,1006.71
2022-08-14T01:59:25.904Z,1006.69
2022-08-14T02:00:27.614Z,1006.69
2022-08-14T02:01:26.561Z,1006.70
2022-08-14T02:02:25.905Z,1006.70
2022-08-14T02:03:29.999Z,1006.71
2022-08-14T02:04:54.702Z,1006.69
2022-08-14T02:05:25.913Z,1006.66
2022-08-14T02:06:33.268Z,1006.69
2022-08-14T02:07:34.147Z,1006.71
2022-08-14T02:08:35.316Z,1006.73
2022-08-14T02:09:25.940Z,1006.71
2022-08-14T02:10:26.293Z,1006.73
2022-08-14T02:11:25.931Z,1006.74
2022-08-14T02:12:29.449Z,1006.74
2022-08-14T02:13:25.935Z,1006.75
2022-08-14T02:14:31.130Z,1006.77
2022-08-14T02:15:25.925Z,1006.76
2022-08-14T02:16:26.359Z,1006.77
2022-08-14T02:17:25.947Z,1006.77
2022-08-14T02:18:25.939Z,1006.75
2022-08-14T02:19:25.938Z,1006.78
2022-08-14T02:20:25.947Z,1006.76
2022-08-14T02:21:25.944Z,1006.75
2022-08-14T02:22:32.953Z,1006.77
2022-08-14T02:23:30.498Z,1006.80
2022-08-14T02:24:39.646Z,1006.79
2022-08-14T02:25:29.892Z,1006.77
2022-08-14T02:26:29.593Z,1006.78
2022-08-14T02:28:23.644Z,1006.76
2022-08-14T02:28:56.786Z,1006.79
2022-08-14T02:29:25.952Z,1006.77
2022-08-14T02:30:25.965Z,1006.79
2022-08-14T02:31:28.472Z,1006.75
2022-08-14T02:32:30.569Z,1006.77
2022-08-14T02:33:25.961Z,1006.79
2022-08-14T02:34:27.374Z,1006.75
2022-08-14T02:35:26.568Z,1006.76
2022-08-14T02:37:04.046Z,1006.76
2022-08-14T02:37:25.967Z,1006.78
2022-08-14T02:38:29.901Z,1006.75
2022-08-14T02:39:26.001Z,1006.77
2022-08-14T02:40:32.530Z,1006.76
2022-08-14T02:41:28.589Z,1006.81
2022-08-14T02:42:37.088Z,1006.80
2022-08-14T02:43:25.981Z,1006.82
2022-08-14T02:44:29.524Z,1006.80
2022-08-14T02:45:33.279Z,1006.83
2022-08-14T02:46:27.115Z,1006.79
2022-08-14T02:47:25.974Z,1006.84
2022-08-14T02:49:03.350Z,1006.79
2022-08-14T02:49:25.984Z,1006.81
2022-08-14T02:50:27.189Z,1006.84
2022-08-14T02:51:25.992Z,1006.81
2022-08-14T02:52:55.895Z,1006.79
2022-08-14T02:53:25.983Z,1006.87
2022-08-14T02:54:25.988Z,1006.83
2022-08-14T02:55:25.995Z,1006.82
2022-08-14T02:56:30.770Z,1006.81
2022-08-14T02:57:39.971Z,1006.79
2022-08-14T02:58:30.268Z,1006.82
2022-08-14T02:59:25.996Z,1006.78
2022-08-14T03:00:26.004Z,1006.82
2022-08-14T03:01:31.068Z,1006.77
2022-08-14T03:02:48.896Z,1006.75
2022-08-14T03:03:26.015Z,1006.76
2022-08-14T03:04:26.012Z,1006.74
2022-08-14T03:05:26.016Z,1006.76
2022-08-14T03:06:49.003Z,1006.74
2022-08-14T03:07:26.048Z,1006.75
2022-08-14T03:08:26.023Z,1006.71
2022-08-14T03:10:24.510Z,1006.73
2022-08-14T03:10:33.368Z,1006.71
2022-08-14T03:11:26.023Z,1006.71
2022-08-14T03:12:31.000Z,1006.66
2022-08-14T03:13:26.022Z,1006.62
2022-08-14T03:14:27.593Z,1006.59
2022-08-14T03:15:26.028Z,1006.55
2022-08-14T03:16:26.853Z,1006.56
2022-08-14T03:17:26.027Z,1006.54
2022-08-14T03:18:31.097Z,1006.55
2022-08-14T03:19:26.035Z,1006.56
2022-08-14T03:20:26.046Z,1006.58
2022-08-14T03:21:26.048Z,1006.58
2022-08-14T03:22:27.714Z,1006.61
2022-08-14T03:23:26.043Z,1006.61
2022-08-14T03:24:26.044Z,1006.63
2022-08-14T03:25:26.049Z,1006.63
2022-08-14T03:26:30.366Z,1006.59
2022-08-14T03:27:26.385Z,1006.61
2022-08-14T03:28:33.398Z,1006.60
2022-08-14T03:29:26.444Z,1006.53
2022-08-14T03:30:39.756Z,1006.55
2022-08-14T03:31:28.132Z,1006.55
2022-08-14T03:32:30.279Z,1006.55
2022-08-14T03:33:26.051Z,1006.54
2022-08-14T03:34:47.978Z,1006.55
2022-08-14T03:35:30.831Z,1006.54
2022-08-14T03:37:38.144Z,1006.52
2022-08-14T03:37:51.842Z,1006.52
2022-08-14T03:39:12.506Z,1006.51
2022-08-14T03:39:27.392Z,1006.53
2022-08-14T03:40:26.057Z,1006.49
2022-08-14T03:41:26.059Z,1006.48
2022-08-14T03:42:36.084Z,1006.50
2022-08-14T03:43:28.444Z,1006.51
2022-08-14T03:45:18.984Z,1006.50
2022-08-14T03:45:35.263Z,1006.46
2022-08-14T03:46:52.984Z,1006.49
2022-08-14T03:47:46.224Z,1006.51
2022-08-14T03:48:30.301Z,1006.45
2022-08-14T03:49:28.456Z,1006.46
2022-08-14T03:50:27.841Z,1006.44
2022-08-14T03:51:26.070Z,1006.45
2022-08-14T03:52:39.081Z,1006.45
2022-08-14T03:53:26.080Z,1006.41
2022-08-14T03:54:26.129Z,1006.41
2022-08-14T03:55:26.071Z,1006.42
2022-08-14T03:56:26.077Z,1006.39
2022-08-14T03:57:26.086Z,1006.39
2022-08-14T03:58:36.226Z,1006.37
2022-08-14T03:59:28.538Z,1006.38
2022-08-14T04:00:43.674Z,1006.35
2022-08-14T04:01:29.418Z,1006.35
2022-08-14T04:02:37.144Z,1006.32
2022-08-14T04:03:26.093Z,1006.33
2022-08-14T04:04:26.094Z,1006.33
2022-08-14T04:05:26.090Z,1006.31
2022-08-14T04:06:28.350Z,1006.33
2022-08-14T04:07:26.101Z,1006.35
2022-08-14T04:08:30.974Z,1006.36
2022-08-14T04:09:26.931Z,1006.33
2022-08-14T04:10:32.312Z,1006.31
2022-08-14T04:11:26.093Z,1006.36
2022-08-14T04:12:26.829Z,1006.36
2022-08-14T04:13:28.015Z,1006.38
2022-08-14T04:14:26.115Z,1006.36
2022-08-14T04:15:26.115Z,1006.39
2022-08-14T04:16:26.101Z,1006.39
2022-08-14T04:17:26.108Z,1006.41
2022-08-14T04:18:26.106Z,1006.39
2022-08-14T04:19:28.195Z,1006.40
2022-08-14T04:20:26.109Z,1006.40
2022-08-14T04:21:26.118Z,1006.42
2022-08-14T04:22:26.116Z,1006.45
2022-08-14T04:23:29.709Z,1006.47
2022-08-14T04:24:26.105Z,1006.44
2022-08-14T04:25:26.120Z,1006.46
2022-08-14T04:26:27.357Z,1006.44
2022-08-14T04:27:26.127Z,1006.42
2022-08-14T04:29:06.787Z,1006.41
2022-08-14T04:29:26.121Z,1006.40
2022-08-14T04:30:30.812Z,1006.34
2022-08-14T04:33:02.520Z,1006.37
2022-08-14T04:33:10.596Z,1006.36
2022-08-14T04:33:26.691Z,1006.32
2022-08-14T04:34:28.077Z,1006.30
2022-08-14T04:35:26.123Z,1006.31
2022-08-14T04:36:26.133Z,1006.30
2022-08-14T04:37:26.136Z,1006.32
2022-08-14T04:38:37.003Z,1006.27
2022-08-14T04:39:26.199Z,1006.30
2022-08-14T04:40:27.783Z,1006.26
2022-08-14T04:41:26.123Z,1006.28
2022-08-14T04:42:26.133Z,1006.25
2022-08-14T04:43:26.141Z,1006.26
2022-08-14T04:44:36.468Z,1006.29
2022-08-14T04:45:29.724Z,1006.29
2022-08-14T04:46:56.987Z,1006.30
2022-08-14T04:47:26.145Z,1006.26
2022-08-14T04:48:39.480Z,1006.30
2022-08-14T04:49:26.138Z,1006.25
2022-08-14T04:50:43.952Z,1006.28
2022-08-14T04:51:26.162Z,1006.24
2022-08-14T04:52:26.153Z,1006.22
2022-08-14T04:53:35.040Z,1006.20
2022-08-14T04:54:26.157Z,1006.15
2022-08-14T04:55:27.799Z,1006.14
2022-08-14T04:56:31.067Z,1006.12
2022-08-14T04:57:26.148Z,1006.11
2022-08-14T04:58:32.229Z,1006.11
2022-08-14T04:59:26.144Z,1006.12
2022-08-14T05:00:26.147Z,1006.09
2022-08-14T05:01:26.226Z,1006.12
2022-08-14T05:02:26.220Z,1006.13
2022-08-14T05:03:26.151Z,1006.11
2022-08-14T05:04:26.168Z,1006.16
2022-08-14T05:05:26.148Z,1006.20
2022-08-14T05:06:37.199Z,1006.15
2022-08-14T05:07:33.955Z,1006.17
2022-08-14T05:08:31.714Z,1006.21
2022-08-14T05:09:29.129Z,1006.20
2022-08-14T05:10:26.175Z,1006.19
2022-08-14T05:11:26.174Z,1006.16
2022-08-14T05:13:13.893Z,1006.22
2022-08-14T05:13:30.139Z,1006.21
2022-08-14T05:14:46.784Z,1006.21
2022-08-14T05:15:26.171Z,1006.19
2022-08-14T05:16:26.178Z,1006.20
2022-08-14T05:17:32.069Z,1006.20
2022-08-14T05:19:19.124Z,1006.19
2022-08-14T05:19:27.234Z,1006.20
2022-08-14T05:21:04.183Z,1006.16
2022-08-14T05:21:59.559Z,1006.19
2022-08-14T05:22:27.242Z,1006.19
2022-08-14T05:23:26.171Z,1006.17
2022-08-14T05:24:26.184Z,1006.13
2022-08-14T05:25:33.763Z,1006.14
2022-08-14T05:26:26.230Z,1006.10
2022-08-14T05:27:26.234Z,1006.10
2022-08-14T05:28:26.186Z,1006.03
2022-08-14T05:29:26.176Z,1006.04
2022-08-14T05:30:26.216Z,1006.03
2022-08-14T05:31:30.172Z,1005.98
2022-08-14T05:32:27.413Z,1005.97
2022-08-14T05:33:26.179Z,1005.96
2022-08-14T05:34:29.554Z,1005.96
2022-08-14T05:35:26.184Z,1005.95
2022-08-14T05:36:26.952Z,1005.97
2022-08-14T05:37:26.199Z,1005.97
2022-08-14T05:38:31.135Z,1005.95
2022-08-14T05:39:26.286Z,1005.97
2022-08-14T05:40:26.196Z,1005.96
2022-08-14T05:41:33.671Z,1005.95
2022-08-14T05:42:26.987Z,1005.95
2022-08-14T05:43:26.198Z,1005.93
2022-08-14T05:44:29.883Z,1005.97
2022-08-14T05:45:26.199Z,1005.93
2022-08-14T05:46:26.198Z,1005.95
2022-08-14T05:47:29.118Z,1005.92
2022-08-14T05:48:33.494Z,1005.90
2022-08-14T05:49:33.004Z,1005.89
2022-08-14T05:50:26.204Z,1005.93
2022-08-14T05:51:26.205Z,1005.91
2022-08-14T05:52:33.901Z,1005.87
2022-08-14T05:53:26.203Z,1005.91
2022-08-14T05:54:26.591Z,1005.89
2022-08-14T05:55:26.211Z,1005.88
2022-08-14T05:56:26.223Z,1005.88
2022-08-14T05:57:26.222Z,1005.92
2022-08-14T05:58:33.883Z,1005.85
2022-08-14T05:59:36.547Z,1005.86
2022-08-14T06:00:29.853Z,1005.82
2022-08-14T06:01:26.325Z,1005.82
2022-08-14T06:02:26.219Z,1005.81
2022-08-14T06:03:26.225Z,1005.84
2022-08-14T06:04:26.227Z,1005.77
2022-08-14T06:05:28.811Z,1005.80
2022-08-14T06:06:26.225Z,1005.78
2022-08-14T06:07:26.227Z,1005.78
2022-08-14T06:08:35.614Z,1005.78
2022-08-14T06:09:26.233Z,1005.78
2022-08-14T06:10:28.024Z,1005.78
2022-08-14T06:11:30.663Z,1005.80
2022-08-14T06:12:31.449Z,1005.81
2022-08-14T06:13:31.616Z,1005.86
2022-08-14T06:14:26.257Z,1005.81
2022-08-14T06:15:29.641Z,1005.85
2022-08-14T06:16:26.249Z,1005.82
2022-08-14T06:17:26.391Z,1005.83
2022-08-14T06:18:26.271Z,1005.79
2022-08-14T06:19:26.314Z,1005.81
2022-08-14T06:20:26.343Z,1005.82
2022-08-14T06:21:26.253Z,1005.78
2022-08-14T06:22:26.251Z,1005.80
2022-08-14T06:23:26.266Z,1005.80
2022-08-14T06:24:26.302Z,1005.84
2022-08-14T06:25:26.254Z,1005.79
2022-08-14T06:26:30.281Z,1005.87
2022-08-14T06:27:26.252Z,1005.85
2022-08-14T06:28:27.240Z,1005.78
2022-08-14T06:29:26.259Z,1005.81
2022-08-14T06:30:30.305Z,1005.78
2022-08-14T06:31:26.262Z,1005.81
2022-08-14T06:32:36.721Z,1005.78
2022-08-14T06:35:01.190Z,1005.81
2022-08-14T06:35:09.383Z,1005.78
2022-08-14T06:35:26.477Z,1005.81
2022-08-14T06:36:26.267Z,1005.85
2022-08-14T06:37:26.273Z,1005.81
2022-08-14T06:38:26.284Z,1005.83
2022-08-14T06:39:37.244Z,1005.78
2022-08-14T06:40:27.895Z,1005.80
2022-08-14T06:41:57.071Z,1005.78
2022-08-14T06:42:33.034Z,1005.74
2022-08-14T06:43:31.697Z,1005.72
2022-08-14T06:44:30.708Z,1005.67
2022-08-14T06:45:26.954Z,1005.65
2022-08-14T06:46:34.079Z,1005.67
2022-08-14T06:47:26.297Z,1005.68
2022-08-14T06:48:26.301Z,1005.62
2022-08-14T06:49:26.284Z,1005.62
2022-08-14T06:50:27.990Z,1005.63
2022-08-14T06:51:26.302Z,1005.61
2022-08-14T06:52:26.290Z,1005.59
2022-08-14T06:53:27.667Z,1005.55
2022-08-14T06:54:31.170Z,1005.57
2022-08-14T06:55:27.681Z,1005.55
2022-08-14T06:56:26.303Z,1005.55
2022-08-14T06:57:26.288Z,1005.54
2022-08-14T06:58:29.546Z,1005.56
2022-08-14T06:59:26.306Z,1005.58
2022-08-14T07:00:27.301Z,1005.61
2022-08-14T07:01:26.946Z,1005.62
2022-08-14T07:02:29.031Z,1005.58
2022-08-14T07:03:26.306Z,1005.57
2022-08-14T07:04:26.316Z,1005.57
2022-08-14T07:05:26.307Z,1005.57
2022-08-14T07:06:46.344Z,1005.54
2022-08-14T07:07:28.632Z,1005.49
2022-08-14T07:08:26.317Z,1005.49
2022-08-14T07:09:27.897Z,1005.49
2022-08-14T07:10:26.317Z,1005.44
2022-08-14T07:11:26.316Z,1005.41
2022-08-14T07:12:52.184Z,1005.40
2022-08-14T07:13:26.317Z,1005.41
2022-08-14T07:14:26.460Z,1005.35
2022-08-14T07:15:26.314Z,1005.37
2022-08-14T07:16:27.435Z,1005.35
2022-08-14T07:17:26.333Z,1005.37
2022-08-14T07:18:26.328Z,1005.37
2022-08-14T07:19:26.323Z,1005.40
2022-08-14T07:20:30.736Z,1005.45
2022-08-14T07:21:26.329Z,1005.43
2022-08-14T07:22:33.003Z,1005.46
2022-08-14T07:23:26.337Z,1005.46
2022-08-14T07:24:31.740Z,1005.42
2022-08-14T07:25:32.797Z,1005.41
2022-08-14T07:26:26.342Z,1005.37
2022-08-14T07:27:26.381Z,1005.34
2022-08-14T07:28:26.351Z,1005.31
2022-08-14T07:29:28.825Z,1005.30
2022-08-14T07:30:34.756Z,1005.34
2022-08-14T07:31:26.350Z,1005.28
2022-08-14T07:32:33.878Z,1005.29
2022-08-14T07:33:29.131Z,1005.32
2022-08-14T07:34:36.532Z,1005.35
2022-08-14T07:35:26.364Z,1005.30
2022-08-14T07:36:30.639Z,1005.27
2022-08-14T07:37:26.360Z,1005.26
2022-08-14T07:38:26.376Z,1005.30
2022-08-14T07:39:27.783Z,1005.32
2022-08-14T07:40:27.436Z,1005.27
2022-08-14T07:41:33.632Z,1005.24
2022-08-14T07:42:26.372Z,1005.24
2022-08-14T07:43:26.365Z,1005.18
2022-08-14T07:44:32.936Z,1005.21
2022-08-14T07:45:26.390Z,1005.19
2022-08-14T07:46:29.423Z,1005.19
2022-08-14T07:47:26.381Z,1005.20
2022-08-14T07:48:26.393Z,1005.20
2022-08-14T07:49:26.392Z,1005.17
2022-08-14T07:50:26.400Z,1005.24
2022-08-14T07:51:34.502Z,1005.19
2022-08-14T07:52:30.845Z,1005.17
2022-08-14T07:53:26.397Z,1005.18
2022-08-14T07:54:30.368Z,1005.18
2022-08-14T07:55:26.392Z,1005.23
2022-08-14T07:56:47.627Z,1005.24
2022-08-14T07:57:26.415Z,1005.31
2022-08-14T07:58:33.899Z,1005.28
2022-08-14T07:59:41.433Z,1005.26
2022-08-14T08:00:31.325Z,1005.30
2022-08-14T08:01:26.412Z,1005.29
2022-08-14T08:02:26.419Z,1005.25
2022-08-14T08:03:26.447Z,1005.23
2022-08-14T08:04:26.955Z,1005.19
2022-08-14T08:05:26.430Z,1005.27
2022-08-14T08:06:26.434Z,1005.30
2022-08-14T08:07:30.079Z,1005.18
2022-08-14T08:08:26.436Z,1005.25
2022-08-14T08:09:32.178Z,1005.25
2022-08-14T08:10:46.781Z,1005.28
2022-08-14T08:11:26.442Z,1005.31
2022-08-14T08:12:30.152Z,1005.27
2022-08-14T08:13:28.635Z,1005.29
2022-08-14T08:14:28.397Z,1005.26
2022-08-14T08:15:26.473Z,1005.23
2022-08-14T08:16:26.543Z,1005.23
2022-08-14T08:17:26.470Z,1005.17
2022-08-14T08:18:29.260Z,1005.17
2022-08-14T08:19:26.461Z,1005.15
2022-08-14T08:20:27.382Z,1005.12
2022-08-14T08:21:26.962Z,1005.12
2022-08-14T08:22:27.459Z,1005.15
2022-08-14T08:23:28.277Z,1005.14
2022-08-14T08:24:26.477Z,1005.16
2022-08-14T08:25:26.481Z,1005.15
2022-08-14T08:26:26.481Z,1005.14
2022-08-14T08:27:26.498Z,1005.20
2022-08-14T08:28:27.296Z,1005.13
2022-08-14T08:29:29.105Z,1005.13
2022-08-14T08:30:26.572Z,1005.15
2022-08-14T08:31:32.912Z,1005.13
2022-08-14T08:32:29.735Z,1005.07
2022-08-14T08:33:26.502Z,1005.06
2022-08-14T08:34:26.505Z,1005.05
2022-08-14T08:35:46.389Z,1005.11
2022-08-14T08:36:26.520Z,1005.06
2022-08-14T08:37:26.522Z,1005.08
2022-08-14T08:39:15.233Z,1005.05
2022-08-14T08:39:31.022Z,1005.07
2022-08-14T08:40:31.403Z,1005.09
2022-08-14T08:41:26.724Z,1005.05
2022-08-14T08:42:31.436Z,1005.09
2022-08-14T08:43:26.552Z,1005.08
2022-08-14T08:44:32.172Z,1005.01
2022-08-14T08:45:27.805Z,1005.04
2022-08-14T08:46:26.550Z,1005.01
2022-08-14T08:47:26.552Z,1005.03
2022-08-14T08:48:31.395Z,1004.99
2022-08-14T08:49:26.559Z,1005.00
2022-08-14T08:50:31.817Z,1004.94
2022-08-14T08:51:33.413Z,1004.96
2022-08-14T08:52:31.071Z,1004.96
2022-08-14T08:53:26.569Z,1004.92
2022-08-14T08:54:31.005Z,1004.95
2022-08-14T08:55:26.579Z,1004.90
2022-08-14T08:56:30.156Z,1004.88
2022-08-14T08:57:26.592Z,1004.85
2022-08-14T08:58:26.580Z,1004.80
2022-08-14T08:59:27.394Z,1004.84
2022-08-14T09:00:26.593Z,1004.87
2022-08-14T09:01:26.623Z,1004.84
2022-08-14T09:02:27.527Z,1004.83
2022-08-14T09:03:27.431Z,1004.83
2022-08-14T09:04:26.603Z,1004.83
2022-08-14T09:05:26.609Z,1004.82
2022-08-14T09:06:59.951Z,1004.88
2022-08-14T09:07:26.838Z,1004.86
2022-08-14T09:08:31.699Z,1004.80
2022-08-14T09:09:26.624Z,1004.90
2022-08-14T09:10:27.386Z,1004.89
2022-08-14T09:11:26.614Z,1004.89
2022-08-14T09:12:27.035Z,1004.88
2022-08-14T09:13:26.618Z,1004.88
2022-08-14T09:14:26.628Z,1004.87
2022-08-14T09:15:26.627Z,1004.80
2022-08-14T09:16:26.631Z,1004.79
2022-08-14T09:17:26.644Z,1004.79
2022-08-14T09:18:26.632Z,1004.75
2022-08-14T09:19:26.642Z,1004.71
2022-08-14T09:20:29.814Z,1004.63
2022-08-14T09:21:31.152Z,1004.61
2022-08-14T09:22:35.995Z,1004.60
2022-08-14T09:23:34.477Z,1004.58
2022-08-14T09:24:36.323Z,1004.59
2022-08-14T09:26:00.275Z,1004.60
2022-08-14T09:26:28.575Z,1004.58
2022-08-14T09:27:26.665Z,1004.56
2022-08-14T09:28:26.661Z,1004.56
2022-08-14T09:29:28.862Z,1004.56
2022-08-14T09:30:32.286Z,1004.53
2022-08-14T09:31:26.675Z,1004.49
2022-08-14T09:32:59.420Z,1004.54
2022-08-14T09:33:26.675Z,1004.50
2022-08-14T09:34:27.921Z,1004.50
2022-08-14T09:35:27.763Z,1004.46
2022-08-14T09:36:26.683Z,1004.48
2022-08-14T09:37:26.679Z,1004.43
2022-08-14T09:38:27.343Z,1004.42
2022-08-14T09:39:26.757Z,1004.41
2022-08-14T09:40:29.445Z,1004.36
2022-08-14T09:41:26.704Z,1004.36
2022-08-14T09:42:33.527Z,1004.34
2022-08-14T09:43:26.738Z,1004.33
2022-08-14T09:44:26.704Z,1004.31
2022-08-14T09:45:26.703Z,1004.30
2022-08-14T09:46:26.701Z,1004.31
2022-08-14T09:47:26.707Z,1004.29
2022-08-14T09:48:30.124Z,1004.23
2022-08-14T09:49:26.731Z,1004.26
2022-08-14T09:50:26.832Z,1004.28
2022-08-14T09:51:26.725Z,1004.29
2022-08-14T09:52:34.266Z,1004.24
2022-08-14T09:54:13.529Z,1004.28
2022-08-14T09:54:26.734Z,1004.31
2022-08-14T09:55:27.872Z,1004.27
2022-08-14T09:56:31.131Z,1004.33
2022-08-14T09:57:27.712Z,1004.34
2022-08-14T09:58:26.755Z,1004.39
2022-08-14T09:59:27.955Z,1004.35
2022-08-14T10:00:28.844Z,1004.33
2022-08-14T10:01:26.752Z,1004.28
2022-08-14T10:02:27.823Z,1004.24
2022-08-14T10:03:26.784Z,1004.24
2022-08-14T10:04:34.396Z,1004.26
2022-08-14T10:05:26.809Z,1004.24
2022-08-14T10:06:28.347Z,1004.23
2022-08-14T10:07:26.767Z,1004.21
2022-08-14T10:08:26.873Z,1004.19
2022-08-14T10:09:26.773Z,1004.18
2022-08-14T10:10:26.780Z,1004.18
2022-08-14T10:11:34.842Z,1004.17
2022-08-14T10:12:29.146Z,1004.08
2022-08-14T10:13:26.863Z,1004.06
2022-08-14T10:14:29.361Z,1004.09
2022-08-14T10:15:27.863Z,1004.04
2022-08-14T10:16:33.094Z,1004.04
2022-08-14T10:17:27.433Z,1004.02
2022-08-14T10:18:26.789Z,1004.01
2022-08-14T10:19:26.791Z,1003.96
2022-08-14T10:20:41.054Z,1003.97
2022-08-14T10:21:26.831Z,1003.97
2022-08-14T10:23:12.841Z,1003.95
2022-08-14T10:23:27.048Z,1003.94
2022-08-14T10:24:31.313Z,1003.94
2022-08-14T10:25:26.807Z,1003.90
2022-08-14T10:26:28.487Z,1003.90
2022-08-14T10:27:27.027Z,1003.86
2022-08-14T10:28:39.148Z,1003.88
2022-08-14T10:29:26.831Z,1003.84
2022-08-14T10:30:26.842Z,1003.86
2022-08-14T10:31:27.071Z,1003.82
2022-08-14T10:32:36.397Z,1003.87
2022-08-14T10:33:26.831Z,1003.89
2022-08-14T10:34:29.240Z,1003.83
2022-08-14T10:35:31.786Z,1003.83
2022-08-14T10:36:34.905Z,1003.87
2022-08-14T10:37:27.915Z,1003.82
2022-08-14T10:38:26.848Z,1003.84
2022-08-14T10:39:26.903Z,1003.80
2022-08-14T10:40:37.606Z,1003.81
2022-08-14T10:41:31.872Z,1003.76
2022-08-14T10:42:26.845Z,1003.75
2022-08-14T10:43:26.867Z,1003.77
2022-08-14T10:44:29.509Z,1003.76
2022-08-14T10:45:26.864Z,1003.73
2022-08-14T10:47:37.972Z,1003.67
2022-08-14T10:47:39.397Z,1003.68
2022-08-14T10:48:36.854Z,1003.67
2022-08-14T10:49:26.875Z,1003.65
2022-08-14T10:50:26.867Z,1003.60
2022-08-14T10:51:26.870Z,1003.59
2022-08-14T10:52:26.875Z,1003.54
2022-08-14T10:53:26.887Z,1003.58
2022-08-14T10:54:39.798Z,1003.57
2022-08-14T10:55:26.889Z,1003.60
2022-08-14T10:56:34.093Z,1003.56
2022-08-14T10:57:26.901Z,1003.59
2022-08-14T10:58:26.893Z,1003.60
2022-08-14T10:59:30.608Z,1003.63
2022-08-14T11:00:29.595Z,1003.64
2022-08-14T11:01:26.903Z,1003.63
2022-08-14T11:02:44.543Z,1003.65
2022-08-14T11:03:55.253Z,1003.61
2022-08-14T11:04:27.658Z,1003.63
2022-08-14T11:05:26.926Z,1003.57
2022-08-14T11:06:27.245Z,1003.57
2022-08-14T11:07:26.925Z,1003.61
2022-08-14T11:08:26.922Z,1003.59
2022-08-14T11:09:32.052Z,1003.64
2022-08-14T11:10:27.656Z,1003.60
2022-08-14T11:11:28.499Z,1003.60
2022-08-14T11:12:34.473Z,1003.56
2022-08-14T11:13:26.936Z,1003.56
2022-08-14T11:14:26.929Z,1003.58
2022-08-14T11:15:27.004Z,1003.58
2022-08-14T11:16:26.944Z,1003.51
2022-08-14T11:17:26.942Z,1003.52
2022-08-14T11:18:32.581Z,1003.53
2022-08-14T11:19:26.964Z,1003.54
2022-08-14T11:20:26.956Z,1003.52
2022-08-14T11:21:30.006Z,1003.49
2022-08-14T11:22:55.461Z,1003.47
2022-08-14T11:23:26.956Z,1003.42
2022-08-14T11:24:55.135Z,1003.41
2022-08-14T11:25:43.316Z,1003.38
2022-08-14T11:26:26.965Z,1003.36
2022-08-14T11:27:33.342Z,1003.35
2022-08-14T11:28:47.129Z,1003.30
2022-08-14T11:29:27.011Z,1003.27
2022-08-14T11:30:49.978Z,1003.25
2022-08-14T11:31:26.989Z,1003.24
2022-08-14T11:32:26.986Z,1003.24
2022-08-14T11:33:26.988Z,1003.25
2022-08-14T11:34:31.904Z,1003.26
2022-08-14T11:35:26.993Z,1003.25
2022-08-14T11:37:02.119Z,1003.18
2022-08-14T11:37:36.879Z,1003.17
2022-08-14T11:38:26.991Z,1003.14
2022-08-14T11:39:35.105Z,1003.15
2022-08-14T11:40:29.298Z,1003.13
2022-08-14T11:41:27.010Z,1003.13
2022-08-14T11:42:58.508Z,1003.14
2022-08-14T11:43:29.254Z,1003.17
2022-08-14T11:44:46.381Z,1003.17
2022-08-14T11:45:27.018Z,1003.11
2022-08-14T11:46:30.630Z,1003.13
2022-08-14T11:47:27.025Z,1003.11
2022-08-14T11:49:02.168Z,1003.09
2022-08-14T11:49:27.032Z,1003.02
2022-08-14T11:50:36.736Z,1002.93
2022-08-14T11:51:30.351Z,1002.90
2022-08-14T11:52:27.047Z,1002.89
2022-08-14T11:53:27.033Z,1002.87
2022-08-14T11:54:34.784Z,1002.82
2022-08-14T11:55:27.045Z,1002.81
2022-08-14T11:56:29.721Z,1002.80
2022-08-14T11:57:27.061Z,1002.84
2022-08-14T11:58:27.049Z,1002.89
2022-08-14T11:59:32.765Z,1002.94
2022-08-14T12:00:31.618Z,1002.92
2022-08-14T12:01:27.100Z,1002.94
2022-08-14T12:03:00.518Z,1002.93
2022-08-14T12:03:37.805Z,1002.93
2022-08-14T12:04:32.196Z,1002.87
2022-08-14T12:05:27.069Z,1002.88